sensor_id;sensor_type;location;lat;lon;timestamp;P1;durP1;ratioP1;P2;durP2;ratioP2
62903;SDS011;49000;50.698;13.322;2023-11-19T00:00:19;1.47;;;1.00;;
62903;SDS011;49000;50.698;13.322;2023-11-19T00:02:44;1.50;;;1.10;;
62903;SDS011;49000;50.698;13.322;2023-11-19T00:05:10;1.43;;;1.00;;
62903;SDS011;49000;50.698;13.322;2023-11-19T00:07:39;1.80;;;1.50;;
62903;SDS011;49000;50.698;13.322;2023-11-19T00:10:11;1.67;;;1.37;;
62903;SDS011;49000;50.698;13.322;2023-11-19T00:12:38;2.20;;;1.40;;
62903;SDS011;49000;50.698;13.322;2023-11-19T00:15:05;2.37;;;1.60;;
62903;SDS011;49000;50.698;13.322;2023-11-19T00:17:36;2.03;;;1.63;;
62903;SDS011;49000;50.698;13.322;2023-11-19T00:20:06;2.50;;;2.07;;
62903;SDS011;49000;50.698;13.322;2023-11-19T00:22:32;2.37;;;1.80;;
62903;SDS011;49000;50.698;13.322;2023-11-19T00:24:57;2.30;;;1.80;;
62903;SDS011;49000;50.698;13.322;2023-11-19T00:27:24;2.90;;;2.10;;
62903;SDS011;49000;50.698;13.322;2023-11-19T00:29:50;3.27;;;2.60;;
62903;SDS011;49000;50.698;13.322;2023-11-19T00:32:15;2.63;;;2.17;;
62903;SDS011;49000;50.698;13.322;2023-11-19T00:34:43;3.60;;;2.60;;
62903;SDS011;49000;50.698;13.322;2023-11-19T00:37:09;3.03;;;2.40;;
62903;SDS011;49000;50.698;13.322;2023-11-19T00:39:34;3.77;;;2.23;;
62903;SDS011;49000;50.698;13.322;2023-11-19T00:42:00;3.37;;;2.67;;
62903;SDS011;49000;50.698;13.322;2023-11-19T00:44:26;3.30;;;2.23;;
62903;SDS011;49000;50.698;13.322;2023-11-19T00:46:51;2.67;;;2.20;;
62903;SDS011;49000;50.698;13.322;2023-11-19T00:49:16;3.27;;;2.57;;
62903;SDS011;49000;50.698;13.322;2023-11-19T00:51:42;3.87;;;2.60;;
62903;SDS011;49000;50.698;13.322;2023-11-19T00:54:07;3.20;;;2.50;;
62903;SDS011;49000;50.698;13.322;2023-11-19T00:56:33;3.57;;;2.30;;
62903;SDS011;49000;50.698;13.322;2023-11-19T00:58:58;2.83;;;2.20;;
62903;SDS011;49000;50.698;13.322;2023-11-19T01:01:25;3.33;;;2.33;;
62903;SDS011;49000;50.698;13.322;2023-11-19T01:03:51;3.93;;;2.47;;
62903;SDS011;49000;50.698;13.322;2023-11-19T01:06:26;2.63;;;2.10;;
62903;SDS011;49000;50.698;13.322;2023-11-19T01:08:52;3.67;;;2.50;;
62903;SDS011;49000;50.698;13.322;2023-11-19T01:11:21;3.37;;;2.40;;
62903;SDS011;49000;50.698;13.322;2023-11-19T01:13:47;3.67;;;2.43;;
62903;SDS011;49000;50.698;13.322;2023-11-19T01:16:13;2.97;;;2.40;;
62903;SDS011;49000;50.698;13.322;2023-11-19T01:18:38;3.13;;;2.13;;
62903;SDS011;49000;50.698;13.322;2023-11-19T01:21:04;3.80;;;2.33;;
62903;SDS011;49000;50.698;13.322;2023-11-19T01:23:30;3.47;;;2.80;;
62903;SDS011;49000;50.698;13.322;2023-11-19T01:25:56;3.03;;;2.13;;
62903;SDS011;49000;50.698;13.322;2023-11-19T01:28:21;3.43;;;2.20;;
62903;SDS011;49000;50.698;13.322;2023-11-19T01:30:46;1.83;;;1.63;;
62903;SDS011;49000;50.698;13.322;2023-11-19T01:33:15;2.70;;;2.20;;
62903;SDS011;49000;50.698;13.322;2023-11-19T01:35:40;3.00;;;2.23;;
62903;SDS011;49000;50.698;13.322;2023-11-19T01:38:06;3.40;;;2.37;;
62903;SDS011;49000;50.698;13.322;2023-11-19T01:40:33;2.90;;;2.10;;
62903;SDS011;49000;50.698;13.322;2023-11-19T01:42:59;4.90;;;2.70;;
62903;SDS011;49000;50.698;13.322;2023-11-19T01:45:28;2.73;;;1.90;;
62903;SDS011;49000;50.698;13.322;2023-11-19T01:47:55;4.03;;;2.17;;
62903;SDS011;49000;50.698;13.322;2023-11-19T01:50:22;3.73;;;2.77;;
62903;SDS011;49000;50.698;13.322;2023-11-19T01:52:50;3.70;;;2.30;;
62903;SDS011;49000;50.698;13.322;2023-11-19T01:55:19;3.30;;;2.00;;
62903;SDS011;49000;50.698;13.322;2023-11-19T01:57:47;2.77;;;1.87;;
62903;SDS011;49000;50.698;13.322;2023-11-19T02:00:14;3.17;;;2.30;;
62903;SDS011;49000;50.698;13.322;2023-11-19T02:02:40;3.17;;;2.30;;
62903;SDS011;49000;50.698;13.322;2023-11-19T02:05:06;2.53;;;1.90;;
62903;SDS011;49000;50.698;13.322;2023-11-19T02:07:32;2.60;;;1.93;;
62903;SDS011;49000;50.698;13.322;2023-11-19T02:09:58;3.47;;;1.93;;
62903;SDS011;49000;50.698;13.322;2023-11-19T02:12:25;2.23;;;1.80;;
62903;SDS011;49000;50.698;13.322;2023-11-19T02:14:53;3.40;;;1.70;;
62903;SDS011;49000;50.698;13.322;2023-11-19T02:17:52;2.40;;;1.60;;
62903;SDS011;49000;50.698;13.322;2023-11-19T02:20:11;2.00;;;1.43;;
62903;SDS011;49000;50.698;13.322;2023-11-19T02:22:38;2.07;;;1.30;;
62903;SDS011;49000;50.698;13.322;2023-11-19T02:25:04;1.83;;;1.30;;
62903;SDS011;49000;50.698;13.322;2023-11-19T02:27:42;1.77;;;1.20;;
62903;SDS011;49000;50.698;13.322;2023-11-19T02:30:08;2.17;;;1.63;;
62903;SDS011;49000;50.698;13.322;2023-11-19T02:32:34;2.30;;;1.30;;
62903;SDS011;49000;50.698;13.322;2023-11-19T02:35:01;1.50;;;1.30;;
62903;SDS011;49000;50.698;13.322;2023-11-19T02:37:26;1.80;;;1.30;;
62903;SDS011;49000;50.698;13.322;2023-11-19T02:39:53;1.60;;;1.00;;
62903;SDS011;49000;50.698;13.322;2023-11-19T02:42:18;1.30;;;0.93;;
62903;SDS011;49000;50.698;13.322;2023-11-19T02:44:44;1.07;;;0.93;;
62903;SDS011;49000;50.698;13.322;2023-11-19T02:47:11;1.50;;;0.93;;
62903;SDS011;49000;50.698;13.322;2023-11-19T02:49:36;1.60;;;0.90;;
62903;SDS011;49000;50.698;13.322;2023-11-19T02:52:02;1.10;;;0.87;;
62903;SDS011;49000;50.698;13.322;2023-11-19T02:54:30;1.10;;;0.83;;
62903;SDS011;49000;50.698;13.322;2023-11-19T02:56:59;1.23;;;0.90;;
62903;SDS011;49000;50.698;13.322;2023-11-19T02:59:27;1.20;;;0.90;;
62903;SDS011;49000;50.698;13.322;2023-11-19T03:01:53;1.10;;;0.80;;
62903;SDS011;49000;50.698;13.322;2023-11-19T03:04:19;1.20;;;0.90;;
62903;SDS011;49000;50.698;13.322;2023-11-19T03:06:48;1.00;;;0.90;;
62903;SDS011;49000;50.698;13.322;2023-11-19T03:09:13;1.53;;;1.20;;
62903;SDS011;49000;50.698;13.322;2023-11-19T03:11:39;1.10;;;0.80;;
62903;SDS011;49000;50.698;13.322;2023-11-19T03:14:04;1.60;;;1.00;;
62903;SDS011;49000;50.698;13.322;2023-11-19T03:16:30;1.17;;;0.80;;
62903;SDS011;49000;50.698;13.322;2023-11-19T03:18:56;1.20;;;0.90;;
62903;SDS011;49000;50.698;13.322;2023-11-19T03:21:31;0.87;;;0.80;;
62903;SDS011;49000;50.698;13.322;2023-11-19T03:23:57;1.30;;;0.90;;
62903;SDS011;49000;50.698;13.322;2023-11-19T03:26:26;1.33;;;0.83;;
62903;SDS011;49000;50.698;13.322;2023-11-19T03:28:52;1.10;;;0.80;;
62903;SDS011;49000;50.698;13.322;2023-11-19T03:31:18;1.93;;;0.80;;
62903;SDS011;49000;50.698;13.322;2023-11-19T03:33:44;1.40;;;0.73;;
62903;SDS011;49000;50.698;13.322;2023-11-19T03:36:10;0.70;;;0.60;;
62903;SDS011;49000;50.698;13.322;2023-11-19T03:38:35;1.80;;;0.77;;
62903;SDS011;49000;50.698;13.322;2023-11-19T03:41:01;0.80;;;0.70;;
62903;SDS011;49000;50.698;13.322;2023-11-19T03:43:35;0.67;;;0.60;;
62903;SDS011;49000;50.698;13.322;2023-11-19T03:46:00;0.63;;;0.47;;
62903;SDS011;49000;50.698;13.322;2023-11-19T03:48:26;0.60;;;0.40;;
62903;SDS011;49000;50.698;13.322;2023-11-19T03:50:51;0.80;;;0.50;;
62903;SDS011;49000;50.698;13.322;2023-11-19T03:53:17;0.70;;;0.40;;
62903;SDS011;49000;50.698;13.322;2023-11-19T03:55:43;1.07;;;0.50;;
62903;SDS011;49000;50.698;13.322;2023-11-19T03:58:09;0.53;;;0.40;;
62903;SDS011;49000;50.698;13.322;2023-11-19T04:00:34;0.60;;;0.33;;
62903;SDS011;49000;50.698;13.322;2023-11-19T04:03:00;0.50;;;0.40;;
62903;SDS011;49000;50.698;13.322;2023-11-19T04:05:25;0.50;;;0.33;;
62903;SDS011;49000;50.698;13.322;2023-11-19T04:07:51;0.70;;;0.50;;
62903;SDS011;49000;50.698;13.322;2023-11-19T04:10:16;0.57;;;0.33;;
62903;SDS011;49000;50.698;13.322;2023-11-19T04:12:42;0.30;;;0.23;;
62903;SDS011;49000;50.698;13.322;2023-11-19T04:15:08;0.30;;;0.20;;
62903;SDS011;49000;50.698;13.322;2023-11-19T04:17:34;0.57;;;0.40;;
62903;SDS011;49000;50.698;13.322;2023-11-19T04:19:59;0.63;;;0.40;;
62903;SDS011;49000;50.698;13.322;2023-11-19T04:22:25;0.50;;;0.30;;
62903;SDS011;49000;50.698;13.322;2023-11-19T04:24:51;0.70;;;0.40;;
62903;SDS011;49000;50.698;13.322;2023-11-19T04:27:16;0.67;;;0.30;;
62903;SDS011;49000;50.698;13.322;2023-11-19T04:29:42;0.60;;;0.40;;
62903;SDS011;49000;50.698;13.322;2023-11-19T04:32:07;0.50;;;0.30;;
62903;SDS011;49000;50.698;13.322;2023-11-19T04:34:33;0.80;;;0.33;;
62903;SDS011;49000;50.698;13.322;2023-11-19T04:36:59;1.27;;;0.60;;
62903;SDS011;49000;50.698;13.322;2023-11-19T04:39:28;0.60;;;0.40;;
62903;SDS011;49000;50.698;13.322;2023-11-19T04:41:54;0.40;;;0.30;;
62903;SDS011;49000;50.698;13.322;2023-11-19T04:44:19;0.80;;;0.43;;
62903;SDS011;49000;50.698;13.322;2023-11-19T04:46:45;0.60;;;0.40;;
62903;SDS011;49000;50.698;13.322;2023-11-19T04:49:12;0.60;;;0.40;;
62903;SDS011;49000;50.698;13.322;2023-11-19T04:51:41;0.40;;;0.23;;
62903;SDS011;49000;50.698;13.322;2023-11-19T04:54:07;0.40;;;0.30;;
62903;SDS011;49000;50.698;13.322;2023-11-19T04:56:36;0.80;;;0.20;;
62903;SDS011;49000;50.698;13.322;2023-11-19T04:59:03;0.90;;;0.40;;
62903;SDS011;49000;50.698;13.322;2023-11-19T05:01:30;0.30;;;0.30;;
62903;SDS011;49000;50.698;13.322;2023-11-19T05:03:59;0.80;;;0.40;;
62903;SDS011;49000;50.698;13.322;2023-11-19T05:06:31;0.63;;;0.43;;
62903;SDS011;49000;50.698;13.322;2023-11-19T05:08:58;0.40;;;0.30;;
62903;SDS011;49000;50.698;13.322;2023-11-19T05:11:33;0.23;;;0.20;;
62903;SDS011;49000;50.698;13.322;2023-11-19T05:13:59;0.50;;;0.40;;
62903;SDS011;49000;50.698;13.322;2023-11-19T05:16:25;0.47;;;0.30;;
62903;SDS011;49000;50.698;13.322;2023-11-19T05:18:51;1.00;;;0.40;;
62903;SDS011;49000;50.698;13.322;2023-11-19T05:21:16;0.50;;;0.40;;
62903;SDS011;49000;50.698;13.322;2023-11-19T05:23:42;3.17;;;0.33;;
62903;SDS011;49000;50.698;13.322;2023-11-19T05:26:08;0.50;;;0.50;;
62903;SDS011;49000;50.698;13.322;2023-11-19T05:28:35;0.60;;;0.60;;
62903;SDS011;49000;50.698;13.322;2023-11-19T05:31:02;0.90;;;0.30;;
62903;SDS011;49000;50.698;13.322;2023-11-19T05:33:28;1.87;;;0.40;;
62903;SDS011;49000;50.698;13.322;2023-11-19T05:35:53;0.47;;;0.40;;
62903;SDS011;49000;50.698;13.322;2023-11-19T05:38:19;0.80;;;0.47;;
62903;SDS011;49000;50.698;13.322;2023-11-19T05:40:46;0.57;;;0.40;;
62903;SDS011;49000;50.698;13.322;2023-11-19T05:43:13;0.37;;;0.33;;
62903;SDS011;49000;50.698;13.322;2023-11-19T05:45:39;1.00;;;0.40;;
62903;SDS011;49000;50.698;13.322;2023-11-19T05:48:05;0.50;;;0.30;;
62903;SDS011;49000;50.698;13.322;2023-11-19T05:50:31;0.50;;;0.40;;
62903;SDS011;49000;50.698;13.322;2023-11-19T05:52:56;1.27;;;0.50;;
62903;SDS011;49000;50.698;13.322;2023-11-19T05:55:21;0.43;;;0.33;;
62903;SDS011;49000;50.698;13.322;2023-11-19T05:57:48;0.60;;;0.50;;
62903;SDS011;49000;50.698;13.322;2023-11-19T06:00:14;0.53;;;0.47;;
62903;SDS011;49000;50.698;13.322;2023-11-19T06:02:40;0.30;;;0.27;;
62903;SDS011;49000;50.698;13.322;2023-11-19T06:05:06;0.97;;;0.90;;
62903;SDS011;49000;50.698;13.322;2023-11-19T06:07:32;1.03;;;0.70;;
62903;SDS011;49000;50.698;13.322;2023-11-19T06:09:58;0.90;;;0.30;;
62903;SDS011;49000;50.698;13.322;2023-11-19T06:12:23;0.73;;;0.33;;
62903;SDS011;49000;50.698;13.322;2023-11-19T06:14:49;3.23;;;0.40;;
62903;SDS011;49000;50.698;13.322;2023-11-19T06:17:14;0.63;;;0.40;;
62903;SDS011;49000;50.698;13.322;2023-11-19T06:19:40;1.30;;;0.50;;
62903;SDS011;49000;50.698;13.322;2023-11-19T06:22:05;0.53;;;0.33;;
62903;SDS011;49000;50.698;13.322;2023-11-19T06:24:31;0.53;;;0.40;;
62903;SDS011;49000;50.698;13.322;2023-11-19T06:26:57;0.57;;;0.40;;
62903;SDS011;49000;50.698;13.322;2023-11-19T06:29:23;0.40;;;0.23;;
62903;SDS011;49000;50.698;13.322;2023-11-19T06:31:48;1.37;;;0.40;;
62903;SDS011;49000;50.698;13.322;2023-11-19T06:34:14;1.17;;;0.30;;
62903;SDS011;49000;50.698;13.322;2023-11-19T06:36:40;0.40;;;0.30;;
62903;SDS011;49000;50.698;13.322;2023-11-19T06:39:05;0.53;;;0.30;;
62903;SDS011;49000;50.698;13.322;2023-11-19T06:41:31;0.40;;;0.30;;
62903;SDS011;49000;50.698;13.322;2023-11-19T06:43:57;0.60;;;0.40;;
62903;SDS011;49000;50.698;13.322;2023-11-19T06:46:22;0.60;;;0.10;;
62903;SDS011;49000;50.698;13.322;2023-11-19T06:48:48;0.30;;;0.20;;
62903;SDS011;49000;50.698;13.322;2023-11-19T06:51:13;0.20;;;0.20;;
62903;SDS011;49000;50.698;13.322;2023-11-19T06:53:39;0.40;;;0.40;;
62903;SDS011;49000;50.698;13.322;2023-11-19T06:56:05;0.90;;;0.50;;
62903;SDS011;49000;50.698;13.322;2023-11-19T06:58:41;1.10;;;0.70;;
62903;SDS011;49000;50.698;13.322;2023-11-19T07:01:07;0.60;;;0.50;;
62903;SDS011;49000;50.698;13.322;2023-11-19T07:03:34;1.20;;;0.80;;
62903;SDS011;49000;50.698;13.322;2023-11-19T07:06:00;1.07;;;0.60;;
62903;SDS011;49000;50.698;13.322;2023-11-19T07:08:26;1.50;;;0.50;;
62903;SDS011;49000;50.698;13.322;2023-11-19T07:10:51;0.30;;;0.20;;
62903;SDS011;49000;50.698;13.322;2023-11-19T07:13:17;0.30;;;0.20;;
62903;SDS011;49000;50.698;13.322;2023-11-19T07:15:44;0.63;;;0.10;;
62903;SDS011;49000;50.698;13.322;2023-11-19T07:18:09;3.77;;;0.20;;
62903;SDS011;49000;50.698;13.322;2023-11-19T07:20:36;1.30;;;0.27;;
62903;SDS011;49000;50.698;13.322;2023-11-19T07:23:02;1.30;;;1.00;;
62903;SDS011;49000;50.698;13.322;2023-11-19T07:25:28;0.67;;;0.20;;
62903;SDS011;49000;50.698;13.322;2023-11-19T07:27:54;0.40;;;0.30;;
62903;SDS011;49000;50.698;13.322;2023-11-19T07:30:20;0.30;;;0.20;;
62903;SDS011;49000;50.698;13.322;2023-11-19T07:32:46;0.60;;;0.17;;
62903;SDS011;49000;50.698;13.322;2023-11-19T07:35:11;0.40;;;0.20;;
62903;SDS011;49000;50.698;13.322;2023-11-19T07:37:37;0.30;;;0.20;;
62903;SDS011;49000;50.698;13.322;2023-11-19T07:40:02;0.07;;;0.00;;
62903;SDS011;49000;50.698;13.322;2023-11-19T07:42:28;0.40;;;0.10;;
62903;SDS011;49000;50.698;13.322;2023-11-19T07:44:54;0.83;;;0.20;;
62903;SDS011;49000;50.698;13.322;2023-11-19T07:47:21;0.30;;;0.20;;
62903;SDS011;49000;50.698;13.322;2023-11-19T07:49:48;0.40;;;0.13;;
62903;SDS011;49000;50.698;13.322;2023-11-19T07:52:15;0.60;;;0.40;;
62903;SDS011;49000;50.698;13.322;2023-11-19T07:54:40;0.30;;;0.20;;
62903;SDS011;49000;50.698;13.322;2023-11-19T07:57:06;1.13;;;0.30;;
62903;SDS011;49000;50.698;13.322;2023-11-19T07:59:32;1.70;;;0.30;;
62903;SDS011;49000;50.698;13.322;2023-11-19T08:01:57;0.80;;;0.10;;
62903;SDS011;49000;50.698;13.322;2023-11-19T08:04:23;1.30;;;0.30;;
62903;SDS011;49000;50.698;13.322;2023-11-19T08:06:49;2.17;;;0.37;;
62903;SDS011;49000;50.698;13.322;2023-11-19T08:09:14;0.43;;;0.20;;
62903;SDS011;49000;50.698;13.322;2023-11-19T08:11:40;0.67;;;0.37;;
62903;SDS011;49000;50.698;13.322;2023-11-19T08:14:06;0.63;;;0.23;;
62903;SDS011;49000;50.698;13.322;2023-11-19T08:16:32;0.40;;;0.27;;
62903;SDS011;49000;50.698;13.322;2023-11-19T08:18:57;0.50;;;0.30;;
62903;SDS011;49000;50.698;13.322;2023-11-19T08:21:24;0.53;;;0.30;;
62903;SDS011;49000;50.698;13.322;2023-11-19T08:23:49;1.40;;;0.40;;
62903;SDS011;49000;50.698;13.322;2023-11-19T08:26:15;1.90;;;0.40;;
62903;SDS011;49000;50.698;13.322;2023-11-19T08:28:41;1.07;;;0.40;;
62903;SDS011;49000;50.698;13.322;2023-11-19T08:31:06;0.43;;;0.40;;
62903;SDS011;49000;50.698;13.322;2023-11-19T08:33:32;1.57;;;0.50;;
62903;SDS011;49000;50.698;13.322;2023-11-19T08:35:57;1.57;;;0.30;;
62903;SDS011;49000;50.698;13.322;2023-11-19T08:38:23;1.07;;;0.37;;
62903;SDS011;49000;50.698;13.322;2023-11-19T08:40:50;0.60;;;0.30;;
62903;SDS011;49000;50.698;13.322;2023-11-19T08:43:15;2.30;;;0.33;;
62903;SDS011;49000;50.698;13.322;2023-11-19T08:45:41;2.87;;;1.10;;
62903;SDS011;49000;50.698;13.322;2023-11-19T08:48:06;2.00;;;0.90;;
62903;SDS011;49000;50.698;13.322;2023-11-19T08:50:32;1.47;;;0.60;;
62903;SDS011;49000;50.698;13.322;2023-11-19T08:52:57;0.73;;;0.40;;
62903;SDS011;49000;50.698;13.322;2023-11-19T08:55:23;2.57;;;0.80;;
62903;SDS011;49000;50.698;13.322;2023-11-19T08:57:48;1.83;;;0.40;;
62903;SDS011;49000;50.698;13.322;2023-11-19T09:00:14;1.33;;;0.60;;
62903;SDS011;49000;50.698;13.322;2023-11-19T09:02:40;5.73;;;1.93;;
62903;SDS011;49000;50.698;13.322;2023-11-19T09:05:05;1.80;;;0.57;;
62903;SDS011;49000;50.698;13.322;2023-11-19T09:07:32;2.80;;;0.67;;
62903;SDS011;49000;50.698;13.322;2023-11-19T09:09:58;2.67;;;1.43;;
62903;SDS011;49000;50.698;13.322;2023-11-19T09:12:23;4.57;;;2.40;;
62903;SDS011;49000;50.698;13.322;2023-11-19T09:14:49;5.03;;;2.07;;
62903;SDS011;49000;50.698;13.322;2023-11-19T09:17:14;1.80;;;0.60;;
62903;SDS011;49000;50.698;13.322;2023-11-19T09:19:40;2.60;;;1.00;;
62903;SDS011;49000;50.698;13.322;2023-11-19T09:22:06;1.47;;;0.70;;
62903;SDS011;49000;50.698;13.322;2023-11-19T09:24:31;1.77;;;0.53;;
62903;SDS011;49000;50.698;13.322;2023-11-19T09:26:57;1.43;;;0.80;;
62903;SDS011;49000;50.698;13.322;2023-11-19T09:29:22;1.60;;;1.10;;
62903;SDS011;49000;50.698;13.322;2023-11-19T09:31:48;4.30;;;1.30;;
62903;SDS011;49000;50.698;13.322;2023-11-19T09:34:14;1.73;;;0.60;;
62903;SDS011;49000;50.698;13.322;2023-11-19T09:36:39;2.47;;;0.70;;
62903;SDS011;49000;50.698;13.322;2023-11-19T09:39:09;2.83;;;0.50;;
62903;SDS011;49000;50.698;13.322;2023-11-19T09:41:35;2.57;;;1.20;;
62903;SDS011;49000;50.698;13.322;2023-11-19T09:44:00;2.90;;;0.80;;
62903;SDS011;49000;50.698;13.322;2023-11-19T09:46:26;1.60;;;0.67;;
62903;SDS011;49000;50.698;13.322;2023-11-19T09:48:53;2.20;;;0.80;;
62903;SDS011;49000;50.698;13.322;2023-11-19T09:51:20;1.77;;;0.60;;
62903;SDS011;49000;50.698;13.322;2023-11-19T09:53:46;2.03;;;0.50;;
62903;SDS011;49000;50.698;13.322;2023-11-19T09:56:11;1.00;;;0.70;;
62903;SDS011;49000;50.698;13.322;2023-11-19T09:58:37;1.40;;;0.50;;
62903;SDS011;49000;50.698;13.322;2023-11-19T10:01:03;1.50;;;0.60;;
62903;SDS011;49000;50.698;13.322;2023-11-19T10:03:32;5.37;;;0.73;;
62903;SDS011;49000;50.698;13.322;2023-11-19T10:06:09;0.80;;;0.50;;
62903;SDS011;49000;50.698;13.322;2023-11-19T10:08:38;2.10;;;0.50;;
62903;SDS011;49000;50.698;13.322;2023-11-19T10:11:05;1.13;;;1.00;;
62903;SDS011;49000;50.698;13.322;2023-11-19T10:13:31;0.57;;;0.30;;
62903;SDS011;49000;50.698;13.322;2023-11-19T10:16:03;1.00;;;0.40;;
62903;SDS011;49000;50.698;13.322;2023-11-19T10:18:33;1.50;;;0.30;;
62903;SDS011;49000;50.698;13.322;2023-11-19T10:21:02;2.00;;;0.50;;
62903;SDS011;49000;50.698;13.322;2023-11-19T10:23:31;1.73;;;0.50;;
62903;SDS011;49000;50.698;13.322;2023-11-19T10:26:17;1.70;;;0.60;;
62903;SDS011;49000;50.698;13.322;2023-11-19T10:28:43;1.47;;;0.40;;
62903;SDS011;49000;50.698;13.322;2023-11-19T10:31:10;0.90;;;0.30;;
62903;SDS011;49000;50.698;13.322;2023-11-19T10:33:38;1.33;;;0.30;;
62903;SDS011;49000;50.698;13.322;2023-11-19T10:36:03;0.97;;;0.50;;
62903;SDS011;49000;50.698;13.322;2023-11-19T10:38:29;1.20;;;0.60;;
62903;SDS011;49000;50.698;13.322;2023-11-19T10:40:55;1.40;;;0.37;;
62903;SDS011;49000;50.698;13.322;2023-11-19T10:43:21;3.00;;;0.70;;
62903;SDS011;49000;50.698;13.322;2023-11-19T10:45:48;1.10;;;0.43;;
62903;SDS011;49000;50.698;13.322;2023-11-19T10:48:14;3.13;;;0.80;;
62903;SDS011;49000;50.698;13.322;2023-11-19T10:50:41;1.00;;;0.60;;
62903;SDS011;49000;50.698;13.322;2023-11-19T10:53:08;2.67;;;0.90;;
62903;SDS011;49000;50.698;13.322;2023-11-19T10:55:35;3.07;;;0.80;;
62903;SDS011;49000;50.698;13.322;2023-11-19T10:58:07;3.90;;;1.13;;
62903;SDS011;49000;50.698;13.322;2023-11-19T11:00:37;3.63;;;0.90;;
62903;SDS011;49000;50.698;13.322;2023-11-19T11:03:15;4.30;;;1.27;;
62903;SDS011;49000;50.698;13.322;2023-11-19T11:05:42;2.87;;;0.80;;
62903;SDS011;49000;50.698;13.322;2023-11-19T11:08:12;5.83;;;1.17;;
62903;SDS011;49000;50.698;13.322;2023-11-19T11:10:59;4.80;;;1.13;;
62903;SDS011;49000;50.698;13.322;2023-11-19T11:13:25;5.80;;;1.33;;
62903;SDS011;49000;50.698;13.322;2023-11-19T11:15:54;3.70;;;0.83;;
62903;SDS011;49000;50.698;13.322;2023-11-19T11:18:22;6.93;;;1.00;;
62903;SDS011;49000;50.698;13.322;2023-11-19T11:20:49;4.70;;;1.07;;
62903;SDS011;49000;50.698;13.322;2023-11-19T11:23:26;7.30;;;1.50;;
62903;SDS011;49000;50.698;13.322;2023-11-19T11:29:24;3.90;;;1.70;;
62903;SDS011;49000;50.698;13.322;2023-11-19T11:35:06;7.57;;;1.10;;
62903;SDS011;49000;50.698;13.322;2023-11-19T11:38:02;4.20;;;1.47;;
62903;SDS011;49000;50.698;13.322;2023-11-19T11:40:31;6.77;;;1.33;;
62903;SDS011;49000;50.698;13.322;2023-11-19T11:42:57;6.93;;;2.07;;
62903;SDS011;49000;50.698;13.322;2023-11-19T11:45:39;5.97;;;1.03;;
62903;SDS011;49000;50.698;13.322;2023-11-19T11:48:17;7.17;;;1.27;;
62903;SDS011;49000;50.698;13.322;2023-11-19T11:50:54;7.67;;;1.67;;
62903;SDS011;49000;50.698;13.322;2023-11-19T11:53:22;11.03;;;1.77;;
62903;SDS011;49000;50.698;13.322;2023-11-19T11:58:18;8.40;;;1.30;;
62903;SDS011;49000;50.698;13.322;2023-11-19T12:01:04;7.03;;;1.60;;
62903;SDS011;49000;50.698;13.322;2023-11-19T12:03:32;8.93;;;1.20;;
62903;SDS011;49000;50.698;13.322;2023-11-19T12:05:58;6.57;;;1.33;;
62903;SDS011;49000;50.698;13.322;2023-11-19T12:08:27;7.40;;;1.63;;
62903;SDS011;49000;50.698;13.322;2023-11-19T12:10:55;2.77;;;0.80;;
62903;SDS011;49000;50.698;13.322;2023-11-19T12:13:23;5.20;;;1.07;;
62903;SDS011;49000;50.698;13.322;2023-11-19T12:18:23;5.87;;;1.40;;
62903;SDS011;49000;50.698;13.322;2023-11-19T12:20:49;4.60;;;1.17;;
62903;SDS011;49000;50.698;13.322;2023-11-19T12:23:15;5.20;;;1.10;;
62903;SDS011;49000;50.698;13.322;2023-11-19T12:25:40;3.37;;;1.10;;
62903;SDS011;49000;50.698;13.322;2023-11-19T12:28:11;5.43;;;1.43;;
62903;SDS011;49000;50.698;13.322;2023-11-19T12:30:37;6.17;;;1.30;;
62903;SDS011;49000;50.698;13.322;2023-11-19T12:33:07;4.63;;;1.20;;
62903;SDS011;49000;50.698;13.322;2023-11-19T12:38:18;5.00;;;1.20;;
62903;SDS011;49000;50.698;13.322;2023-11-19T12:40:43;3.10;;;1.20;;
62903;SDS011;49000;50.698;13.322;2023-11-19T12:43:09;6.63;;;0.93;;
62903;SDS011;49000;50.698;13.322;2023-11-19T12:45:35;5.07;;;0.97;;
62903;SDS011;49000;50.698;13.322;2023-11-19T12:48:07;4.50;;;1.00;;
62903;SDS011;49000;50.698;13.322;2023-11-19T12:53:18;6.10;;;1.10;;
62903;SDS011;49000;50.698;13.322;2023-11-19T12:55:43;5.27;;;1.20;;
62903;SDS011;49000;50.698;13.322;2023-11-19T12:58:09;3.40;;;1.20;;
62903;SDS011;49000;50.698;13.322;2023-11-19T13:00:35;6.20;;;2.43;;
62903;SDS011;49000;50.698;13.322;2023-11-19T13:03:01;4.83;;;1.40;;
62903;SDS011;49000;50.698;13.322;2023-11-19T13:05:33;3.33;;;1.17;;
62903;SDS011;49000;50.698;13.322;2023-11-19T13:07:59;4.37;;;1.33;;
62903;SDS011;49000;50.698;13.322;2023-11-19T13:10:30;4.00;;;1.30;;
62903;SDS011;49000;50.698;13.322;2023-11-19T13:13:14;6.30;;;1.10;;
62903;SDS011;49000;50.698;13.322;2023-11-19T13:15:40;5.43;;;1.10;;
62903;SDS011;49000;50.698;13.322;2023-11-19T13:18:06;6.43;;;1.50;;
62903;SDS011;49000;50.698;13.322;2023-11-19T13:20:31;7.47;;;1.53;;
62903;SDS011;49000;50.698;13.322;2023-11-19T13:22:58;9.10;;;1.47;;
62903;SDS011;49000;50.698;13.322;2023-11-19T13:25:26;7.83;;;1.30;;
62903;SDS011;49000;50.698;13.322;2023-11-19T13:27:52;5.73;;;1.37;;
62903;SDS011;49000;50.698;13.322;2023-11-19T13:30:18;6.63;;;1.20;;
62903;SDS011;49000;50.698;13.322;2023-11-19T13:32:44;6.27;;;1.47;;
62903;SDS011;49000;50.698;13.322;2023-11-19T13:35:11;6.80;;;1.40;;
62903;SDS011;49000;50.698;13.322;2023-11-19T13:37:37;5.90;;;1.30;;
62903;SDS011;49000;50.698;13.322;2023-11-19T13:40:03;4.93;;;1.23;;
62903;SDS011;49000;50.698;13.322;2023-11-19T13:42:30;5.80;;;1.37;;
62903;SDS011;49000;50.698;13.322;2023-11-19T13:44:55;6.57;;;1.50;;
62903;SDS011;49000;50.698;13.322;2023-11-19T13:47:21;9.70;;;1.30;;
62903;SDS011;49000;50.698;13.322;2023-11-19T13:49:47;8.87;;;1.40;;
62903;SDS011;49000;50.698;13.322;2023-11-19T13:52:12;7.60;;;2.20;;
62903;SDS011;49000;50.698;13.322;2023-11-19T13:54:38;6.00;;;1.20;;
62903;SDS011;49000;50.698;13.322;2023-11-19T13:57:03;7.43;;;1.30;;
62903;SDS011;49000;50.698;13.322;2023-11-19T13:59:29;5.27;;;1.03;;
62903;SDS011;49000;50.698;13.322;2023-11-19T14:01:57;8.73;;;1.70;;
62903;SDS011;49000;50.698;13.322;2023-11-19T14:04:23;8.97;;;1.70;;
62903;SDS011;49000;50.698;13.322;2023-11-19T14:06:49;4.33;;;1.20;;
62903;SDS011;49000;50.698;13.322;2023-11-19T14:09:14;6.37;;;1.30;;
62903;SDS011;49000;50.698;13.322;2023-11-19T14:11:40;8.40;;;1.40;;
62903;SDS011;49000;50.698;13.322;2023-11-19T14:14:05;7.40;;;1.93;;
62903;SDS011;49000;50.698;13.322;2023-11-19T14:16:31;9.37;;;2.13;;
62903;SDS011;49000;50.698;13.322;2023-11-19T14:18:57;6.63;;;1.40;;
62903;SDS011;49000;50.698;13.322;2023-11-19T14:21:23;8.80;;;1.67;;
62903;SDS011;49000;50.698;13.322;2023-11-19T14:23:50;5.30;;;1.60;;
62903;SDS011;49000;50.698;13.322;2023-11-19T14:26:15;10.30;;;1.50;;
62903;SDS011;49000;50.698;13.322;2023-11-19T14:28:41;6.27;;;1.40;;
62903;SDS011;49000;50.698;13.322;2023-11-19T14:31:06;7.43;;;1.43;;
62903;SDS011;49000;50.698;13.322;2023-11-19T14:33:32;5.93;;;1.13;;
62903;SDS011;49000;50.698;13.322;2023-11-19T14:36:00;7.37;;;1.40;;
62903;SDS011;49000;50.698;13.322;2023-11-19T14:38:25;8.73;;;1.50;;
62903;SDS011;49000;50.698;13.322;2023-11-19T14:40:51;7.07;;;1.40;;
62903;SDS011;49000;50.698;13.322;2023-11-19T14:43:16;5.37;;;1.40;;
62903;SDS011;49000;50.698;13.322;2023-11-19T14:45:42;7.00;;;1.47;;
62903;SDS011;49000;50.698;13.322;2023-11-19T14:48:08;7.23;;;1.50;;